Terminal Aerodrome Forecast
Issued by NWS Sioux Falls, SD

Home | Current Version | Previous Version | Graphics & Text | Print | Product List | Glossary Off
Versions: 1 2 3 4 5 6 7 8 9 10 11 12 13 14 15 16 17 18 19 20

000
FTUS43 KFSD 261321 AAB
TAFFSD
TAF AMD
KFSD 261321Z 2613/2712 01018G25KT P6SM BKN015
     FM261400 36020G28KT 3SM -SN BKN015
     FM261500 35022G30KT P6SM OVC020
     FM262000 34018G25KT P6SM SCT025 BKN040
     FM270000 34009KT P6SM SCT040
     FM270700 34004KT P6SM SCT120=

USA.gov is the U.S. government's official web portal to all federal, state and local government web resources and services.